Time;durP1;ratioP1;P1;durP2;ratioP2;P2;SDS_P1;SDS_P2;PMS_P1;PMS_P2;Temp;Humidity;BMP_temperature;BMP_pressure;BME280_temperature;BME280_humidity;BME280_pressure;Samples;Min_cycle;Max_cycle;Signal;HPM_P1;HPM_P2
2023/11/22 00:02:06;;;;;;;35.50;18.80;;;;;;;-128.00;-1.00;-1.00;106957;1251;1002495;-65
2023/11/22 00:04:33;;;;;;;35.80;21.40;;;;;;;-128.00;-1.00;-1.00;106573;1252;1002489;-63
2023/11/22 00:07:01;;;;;;;40.90;21.50;;;;;;;-128.00;-1.00;-1.00;106943;1251;1002330;-66
2023/11/22 00:09:29;;;;;;;38.80;21.20;;;;;;;-128.00;-1.00;-1.00;106932;1250;1002707;-66
2023/11/22 00:11:56;;;;;;;34.00;21.00;;;;;;;-128.00;-1.00;-1.00;106931;1251;1002454;-65
2023/11/22 00:14:24;;;;;;;38.40;21.60;;;;;;;-128.00;-1.00;-1.00;106945;1251;1002366;-66
2023/11/22 00:16:51;;;;;;;41.90;21.00;;;;;;;-128.00;-1.00;-1.00;106871;1251;1002934;-67
2023/11/22 00:19:22;;;;;;;34.60;18.80;;;;;;;-128.00;-1.00;-1.00;106884;1250;1002935;-66
2023/11/22 00:21:49;;;;;;;28.30;14.90;;;;;;;-128.00;-1.00;-1.00;106888;1252;1010445;-67
2023/11/22 00:24:18;;;;;;;31.20;18.30;;;;;;;-128.00;-1.00;-1.00;106939;1251;1002039;-67
2023/11/22 00:26:45;;;;;;;34.60;18.80;;;;;;;-128.00;-1.00;-1.00;106663;1251;1012866;-66
2023/11/22 00:29:13;;;;;;;35.30;20.70;;;;;;;-128.00;-1.00;-1.00;106932;1251;1002457;-66
2023/11/22 00:31:41;;;;;;;34.50;18.80;;;;;;;-128.00;-1.00;-1.00;106975;1251;1002476;-63
2023/11/22 00:34:08;;;;;;;32.60;19.10;;;;;;;-128.00;-1.00;-1.00;106894;1251;1002774;-64
2023/11/22 00:36:36;;;;;;;33.80;17.80;;;;;;;-128.00;-1.00;-1.00;106937;1251;1002373;-67
2023/11/22 00:39:03;;;;;;;37.90;21.00;;;;;;;-128.00;-1.00;-1.00;106917;1251;1002363;-65
2023/11/22 00:41:31;;;;;;;38.30;20.00;;;;;;;-128.00;-1.00;-1.00;106859;1251;1002377;-66
2023/11/22 00:43:59;;;;;;;39.70;20.50;;;;;;;-128.00;-1.00;-1.00;106785;1251;1002425;-66
2023/11/22 00:46:27;;;;;;;39.40;21.80;;;;;;;-128.00;-1.00;-1.00;106707;1251;1002255;-67
2023/11/22 00:48:56;;;;;;;30.60;18.60;;;;;;;-128.00;-1.00;-1.00;106765;1251;1002344;-66
2023/11/22 00:51:24;;;;;;;33.30;18.00;;;;;;;-128.00;-1.00;-1.00;106672;1251;1012715;-66
2023/11/22 00:53:52;;;;;;;32.60;18.10;;;;;;;-128.00;-1.00;-1.00;106579;1258;1013031;-66
2023/11/22 00:56:20;;;;;;;37.30;19.50;;;;;;;-128.00;-1.00;-1.00;106686;1251;1002628;-65
2023/11/22 00:58:49;;;;;;;33.00;17.20;;;;;;;-128.00;-1.00;-1.00;107023;1251;1002235;-66
2023/11/22 01:01:18;;;;;;;26.30;14.10;;;;;;;-128.00;-1.00;-1.00;106906;1251;1011081;-65
2023/11/22 01:03:46;;;;;;;27.10;17.60;;;;;;;-128.00;-1.00;-1.00;106871;1252;1013384;-65
2023/11/22 01:06:14;;;;;;;31.50;19.20;;;;;;;-128.00;-1.00;-1.00;106920;1251;1012756;-66
2023/11/22 01:08:42;;;;;;;38.30;18.20;;;;;;;-128.00;-1.00;-1.00;106962;1250;1002531;-66
2023/11/22 01:11:09;;;;;;;28.30;17.20;;;;;;;-128.00;-1.00;-1.00;106915;1251;1002568;-66
2023/11/22 01:13:40;;;;;;;29.00;17.00;;;;;;;-128.00;-1.00;-1.00;106955;1251;1002319;-66
2023/11/22 01:16:09;;;;;;;36.60;17.80;;;;;;;-128.00;-1.00;-1.00;106478;1251;1012270;-66
2023/11/22 01:18:37;;;;;;;33.90;19.00;;;;;;;-128.00;-1.00;-1.00;106935;1251;1002434;-66
2023/11/22 01:21:06;;;;;;;32.20;19.20;;;;;;;-128.00;-1.00;-1.00;106893;1251;1013197;-67
2023/11/22 01:23:34;;;;;;;34.30;18.00;;;;;;;-128.00;-1.00;-1.00;106953;1251;1002376;-67
2023/11/22 01:26:02;;;;;;;32.30;17.40;;;;;;;-128.00;-1.00;-1.00;106692;1251;1001971;-67
2023/11/22 01:28:34;;;;;;;30.20;17.30;;;;;;;-128.00;-1.00;-1.00;106957;1251;1013486;-67
2023/11/22 01:31:02;;;;;;;34.70;19.80;;;;;;;-128.00;-1.00;-1.00;106903;1257;1013822;-67
2023/11/22 01:33:32;;;;;;;32.40;17.90;;;;;;;-128.00;-1.00;-1.00;106873;1251;1012123;-68
2023/11/22 01:35:59;;;;;;;37.60;20.30;;;;;;;-128.00;-1.00;-1.00;106895;1251;1010652;-67
2023/11/22 01:38:27;;;;;;;38.60;21.10;;;;;;;-128.00;-1.00;-1.00;106898;1251;1002655;-67
2023/11/22 01:40:55;;;;;;;37.20;18.70;;;;;;;-128.00;-1.00;-1.00;106914;1251;1002640;-67
2023/11/22 01:43:23;;;;;;;28.90;17.20;;;;;;;-128.00;-1.00;-1.00;106468;1251;1002985;-68
2023/11/22 01:45:51;;;;;;;27.90;18.50;;;;;;;-128.00;-1.00;-1.00;106914;1251;1012277;-67
2023/11/22 01:48:19;;;;;;;30.40;16.80;;;;;;;-128.00;-1.00;-1.00;106900;1251;1002020;-67
2023/11/22 01:50:47;;;;;;;30.60;17.00;;;;;;;-128.00;-1.00;-1.00;106933;1251;1002667;-67
2023/11/22 01:53:16;;;;;;;35.80;16.90;;;;;;;-128.00;-1.00;-1.00;106853;1251;1002752;-67
2023/11/22 01:55:44;;;;;;;26.00;14.60;;;;;;;-128.00;-1.00;-1.00;106807;1251;1011615;-68
2023/11/22 01:58:11;;;;;;;28.40;16.80;;;;;;;-128.00;-1.00;-1.00;106500;1250;1002064;-66
2023/11/22 02:00:51;;;;;;;28.10;15.70;;;;;;;-128.00;-1.00;-1.00;106908;1251;1009620;-68
2023/11/22 02:03:20;;;;;;;29.00;17.80;;;;;;;-128.00;-1.00;-1.00;106854;1251;1010221;-67
2023/11/22 02:05:49;;;;;;;34.50;17.80;;;;;;;-128.00;-1.00;-1.00;106905;1251;1012193;-67
2023/11/22 02:08:18;;;;;;;33.00;19.40;;;;;;;-128.00;-1.00;-1.00;106714;1251;1012618;-67
2023/11/22 02:10:49;;;;;;;23.40;14.00;;;;;;;-128.00;-1.00;-1.00;106871;1250;1012601;-68
2023/11/22 02:13:16;;;;;;;35.50;20.20;;;;;;;-128.00;-1.00;-1.00;106691;1251;1009799;-67
2023/11/22 02:15:46;;;;;;;27.90;16.10;;;;;;;-128.00;-1.00;-1.00;106887;1250;1002209;-67
2023/11/22 02:18:14;;;;;;;37.70;20.20;;;;;;;-128.00;-1.00;-1.00;106752;1251;1013862;-67
2023/11/22 02:20:42;;;;;;;31.30;19.60;;;;;;;-128.00;-1.00;-1.00;106759;1251;1002323;-67
2023/11/22 02:23:11;;;;;;;29.30;18.20;;;;;;;-128.00;-1.00;-1.00;106817;1251;1012481;-66
2023/11/22 02:25:39;;;;;;;34.40;19.50;;;;;;;-128.00;-1.00;-1.00;106907;1251;1010643;-67
2023/11/22 02:28:08;;;;;;;30.90;15.00;;;;;;;-128.00;-1.00;-1.00;106707;1251;1011591;-68
2023/11/22 02:30:36;;;;;;;26.10;15.80;;;;;;;-128.00;-1.00;-1.00;106902;1251;1012648;-68
2023/11/22 02:33:06;;;;;;;27.00;14.70;;;;;;;-128.00;-1.00;-1.00;106900;1254;1002141;-68
2023/11/22 02:35:34;;;;;;;28.70;14.60;;;;;;;-128.00;-1.00;-1.00;106902;1251;1013211;-68
2023/11/22 02:38:03;;;;;;;28.50;17.30;;;;;;;-128.00;-1.00;-1.00;106854;1251;1010115;-67
2023/11/22 02:40:31;;;;;;;35.20;17.90;;;;;;;-128.00;-1.00;-1.00;106920;1251;1002308;-67
2023/11/22 02:43:00;;;;;;;28.70;17.30;;;;;;;-128.00;-1.00;-1.00;106798;1250;1002438;-68
2023/11/22 02:45:28;;;;;;;26.10;17.80;;;;;;;-128.00;-1.00;-1.00;106845;1250;1012553;-67
2023/11/22 02:47:56;;;;;;;24.30;12.00;;;;;;;-128.00;-1.00;-1.00;106901;1251;1002478;-68
2023/11/22 02:50:23;;;;;;;28.00;15.60;;;;;;;-128.00;-1.00;-1.00;106803;1254;1002172;-68
2023/11/22 02:52:51;;;;;;;25.20;13.80;;;;;;;-128.00;-1.00;-1.00;106856;1252;1002753;-68
2023/11/22 02:55:19;;;;;;;20.80;12.10;;;;;;;-128.00;-1.00;-1.00;106866;1252;1001801;-67
2023/11/22 02:57:47;;;;;;;33.30;18.40;;;;;;;-128.00;-1.00;-1.00;106876;1251;1012784;-67
2023/11/22 03:00:14;;;;;;;34.70;20.20;;;;;;;-128.00;-1.00;-1.00;106645;1254;1002461;-68
2023/11/22 03:02:42;;;;;;;40.30;21.80;;;;;;;-128.00;-1.00;-1.00;106746;1252;1002874;-67
2023/11/22 03:05:10;;;;;;;24.80;13.40;;;;;;;-128.00;-1.00;-1.00;106865;1252;1002171;-67
2023/11/22 03:07:41;;;;;;;34.20;17.10;;;;;;;-128.00;-1.00;-1.00;106841;1252;1013559;-66
2023/11/22 03:10:08;;;;;;;24.50;13.50;;;;;;;-128.00;-1.00;-1.00;106575;1257;1012640;-67
2023/11/22 03:12:37;;;;;;;34.50;19.20;;;;;;;-128.00;-1.00;-1.00;106855;1253;1001883;-67
2023/11/22 03:15:05;;;;;;;32.80;18.10;;;;;;;-128.00;-1.00;-1.00;106866;1253;1010074;-68
2023/11/22 03:17:33;;;;;;;24.60;13.60;;;;;;;-128.00;-1.00;-1.00;106778;1253;1002047;-68
2023/11/22 03:20:01;;;;;;;32.90;17.10;;;;;;;-128.00;-1.00;-1.00;106711;1253;1002533;-68
2023/11/22 03:22:31;;;;;;;29.80;18.00;;;;;;;-128.00;-1.00;-1.00;106796;1254;1002107;-68
2023/11/22 03:25:04;;;;;;;44.40;22.00;;;;;;;-128.00;-1.00;-1.00;106682;1253;1012850;-68
2023/11/22 03:27:31;;;;;;;25.10;13.50;;;;;;;-128.00;-1.00;-1.00;106845;1254;1010437;-68
2023/11/22 03:29:59;;;;;;;36.50;19.10;;;;;;;-128.00;-1.00;-1.00;106922;1253;1002960;-67
2023/11/22 03:32:28;;;;;;;30.40;16.80;;;;;;;-128.00;-1.00;-1.00;106887;1252;1002434;-68
2023/11/22 03:34:57;;;;;;;;;;;;;;;-128.00;-1.00;-1.00;106649;1253;1012633;-67
2023/11/22 03:37:25;;;;;;;40.20;21.60;;;;;;;-128.00;-1.00;-1.00;106846;1254;1012414;-68
2023/11/22 03:39:53;;;;;;;30.20;17.80;;;;;;;-128.00;-1.00;-1.00;106890;1252;1001976;-67
2023/11/22 03:42:20;;;;;;;29.20;16.10;;;;;;;-128.00;-1.00;-1.00;106892;1253;1002365;-67
2023/11/22 03:44:48;;;;;;;34.50;19.30;;;;;;;-128.00;-1.00;-1.00;106906;1252;1001819;-67
2023/11/22 03:47:16;;;;;;;38.90;20.00;;;;;;;-128.00;-1.00;-1.00;106884;1253;1002794;-67
2023/11/22 03:49:46;;;;;;;31.30;17.10;;;;;;;-128.00;-1.00;-1.00;106953;1249;1013577;-68
2023/11/22 03:52:16;;;;;;;52.90;25.60;;;;;;;-128.00;-1.00;-1.00;107117;1250;1002485;-68
2023/11/22 03:54:44;;;;;;;38.10;20.80;;;;;;;-128.00;-1.00;-1.00;107062;1251;1011136;-67
2023/11/22 03:57:11;;;;;;;34.50;19.20;;;;;;;-128.00;-1.00;-1.00;107135;1251;1001902;-67
2023/11/22 03:59:40;;;;;;;45.20;26.80;;;;;;;-128.00;-1.00;-1.00;107072;1249;1002411;-67
2023/11/22 04:02:08;;;;;;;40.00;22.00;;;;;;;-128.00;-1.00;-1.00;107152;1250;1012121;-67
2023/11/22 04:04:37;;;;;;;31.80;17.30;;;;;;;-128.00;-1.00;-1.00;106998;1250;1002220;-68
2023/11/22 04:07:06;;;;;;;32.20;18.80;;;;;;;-128.00;-1.00;-1.00;107060;1251;1010884;-67
2023/11/22 04:09:33;;;;;;;30.40;17.10;;;;;;;-128.00;-1.00;-1.00;107135;1250;1012782;-66
2023/11/22 04:12:01;;;;;;;43.70;23.30;;;;;;;-128.00;-1.00;-1.00;107111;1250;1002333;-66
2023/11/22 04:14:28;;;;;;;37.60;22.10;;;;;;;-128.00;-1.00;-1.00;107115;1249;1002376;-67
2023/11/22 04:16:57;;;;;;;;;;;;;;;-128.00;-1.00;-1.00;107146;1250;1009698;-65
2023/11/22 04:19:25;;;;;;;37.30;19.20;;;;;;;-128.00;-1.00;-1.00;106907;1250;1002111;-66
2023/11/22 04:21:54;;;;;;;33.60;19.00;;;;;;;-128.00;-1.00;-1.00;106986;1249;1002406;-63
2023/11/22 04:24:21;;;;;;;31.30;17.80;;;;;;;-128.00;-1.00;-1.00;106909;1250;1012614;-66
2023/11/22 04:26:49;;;;;;;35.20;20.20;;;;;;;-128.00;-1.00;-1.00;107096;1251;1002782;-64
2023/11/22 04:29:16;;;;;;;34.10;20.50;;;;;;;-128.00;-1.00;-1.00;107080;1251;1002235;-61
2023/11/22 04:31:44;;;;;;;42.70;20.70;;;;;;;-128.00;-1.00;-1.00;107084;1249;1002859;-65
2023/11/22 04:34:12;;;;;;;37.40;21.20;;;;;;;-128.00;-1.00;-1.00;106990;1250;1002744;-66
2023/11/22 04:36:39;;;;;;;35.70;19.20;;;;;;;-128.00;-1.00;-1.00;107129;1251;1002571;-66
2023/11/22 04:39:07;;;;;;;28.40;15.10;;;;;;;-128.00;-1.00;-1.00;107063;1250;1002793;-66
2023/11/22 04:41:35;;;;;;;35.00;18.60;;;;;;;-128.00;-1.00;-1.00;107122;1249;1009722;-67
2023/11/22 04:44:03;;;;;;;29.10;16.50;;;;;;;-128.00;-1.00;-1.00;106860;1249;1002553;-65
2023/11/22 04:46:30;;;;;;;23.90;15.80;;;;;;;-128.00;-1.00;-1.00;107137;1249;1002654;-65
2023/11/22 04:48:58;;;;;;;29.40;17.80;;;;;;;-128.00;-1.00;-1.00;107032;1250;1002943;-64
2023/11/22 04:51:26;;;;;;;34.30;15.70;;;;;;;-128.00;-1.00;-1.00;106812;1253;1002230;-66
2023/11/22 04:53:53;;;;;;;31.40;17.40;;;;;;;-128.00;-1.00;-1.00;106792;1252;1002605;-65
2023/11/22 04:56:21;;;;;;;24.70;14.70;;;;;;;-128.00;-1.00;-1.00;106868;1252;1002197;-66
2023/11/22 04:58:48;;;;;;;30.50;19.00;;;;;;;-128.00;-1.00;-1.00;106894;1253;1002793;-66
2023/11/22 05:01:16;;;;;;;19.30;12.30;;;;;;;-128.00;-1.00;-1.00;106841;1252;1002132;-63
2023/11/22 05:03:47;;;;;;;35.00;18.10;;;;;;;-128.00;-1.00;-1.00;106861;1252;1012962;-66
2023/11/22 05:06:16;;;;;;;36.40;20.20;;;;;;;-128.00;-1.00;-1.00;106895;1252;1003509;-65
2023/11/22 05:08:44;;;;;;;27.80;17.50;;;;;;;-128.00;-1.00;-1.00;106873;1252;1011247;-64
2023/11/22 05:11:11;;;;;;;25.60;16.40;;;;;;;-128.00;-1.00;-1.00;106731;1252;1002584;-66
2023/11/22 05:13:39;;;;;;;32.00;18.10;;;;;;;-128.00;-1.00;-1.00;106535;1251;1003138;-67
2023/11/22 05:16:07;;;;;;;31.20;17.10;;;;;;;-128.00;-1.00;-1.00;106848;1253;1002502;-66
2023/11/22 05:18:35;;;;;;;23.90;15.30;;;;;;;-128.00;-1.00;-1.00;106837;1252;1010513;-66
2023/11/22 05:21:06;;;;;;;17.10;11.40;;;;;;;-128.00;-1.00;-1.00;106856;1252;1010950;-67
2023/11/22 05:23:33;;;;;;;24.60;16.20;;;;;;;-128.00;-1.00;-1.00;106857;1252;1012767;-63
2023/11/22 05:26:01;;;;;;;15.00;10.60;;;;;;;-128.00;-1.00;-1.00;106828;1253;1002251;-67
2023/11/22 05:28:28;;;;;;;19.30;13.50;;;;;;;-128.00;-1.00;-1.00;106865;1252;1002440;-65
2023/11/22 05:30:56;;;;;;;20.10;10.30;;;;;;;-128.00;-1.00;-1.00;106774;1253;1002215;-67
2023/11/22 05:33:23;;;;;;;31.50;16.40;;;;;;;-128.00;-1.00;-1.00;106876;1252;1002619;-67
2023/11/22 05:35:51;;;;;;;36.00;18.30;;;;;;;-128.00;-1.00;-1.00;106908;1252;1002680;-67
2023/11/22 05:38:19;;;;;;;33.00;19.30;;;;;;;-128.00;-1.00;-1.00;106906;1252;1002505;-64
2023/11/22 05:40:46;;;;;;;26.80;16.80;;;;;;;-128.00;-1.00;-1.00;106864;1252;1002142;-67
2023/11/22 05:43:14;;;;;;;33.90;19.00;;;;;;;-128.00;-1.00;-1.00;106891;1252;1002600;-66
2023/11/22 05:45:41;;;;;;;34.40;20.10;;;;;;;-128.00;-1.00;-1.00;106891;1252;1002371;-64
2023/11/22 05:48:09;;;;;;;32.50;19.80;;;;;;;-128.00;-1.00;-1.00;106937;1251;1002191;-66
2023/11/22 05:50:36;;;;;;;32.00;19.50;;;;;;;-128.00;-1.00;-1.00;106923;1251;1002472;-66
2023/11/22 05:53:04;;;;;;;16.20;11.60;;;;;;;-128.00;-1.00;-1.00;106894;1251;1001473;-65
2023/11/22 05:55:32;;;;;;;17.60;12.70;;;;;;;-128.00;-1.00;-1.00;106884;1251;1002624;-64
2023/11/22 05:57:59;;;;;;;23.90;12.60;;;;;;;-128.00;-1.00;-1.00;106882;1251;1002295;-63
2023/11/22 06:00:27;;;;;;;30.00;17.60;;;;;;;-128.00;-1.00;-1.00;106860;1251;1002449;-63
2023/11/22 06:02:55;;;;;;;22.00;13.40;;;;;;;-128.00;-1.00;-1.00;106766;1256;1002424;-67
2023/11/22 06:05:23;;;;;;;24.40;14.30;;;;;;;-128.00;-1.00;-1.00;106894;1251;1012607;-65
2023/11/22 06:07:51;;;;;;;14.20;10.60;;;;;;;-128.00;-1.00;-1.00;106927;1251;1002266;-66
2023/11/22 06:10:18;;;;;;;17.40;12.60;;;;;;;-128.00;-1.00;-1.00;106906;1251;1011487;-66
2023/11/22 06:12:46;;;;;;;17.80;12.20;;;;;;;-128.00;-1.00;-1.00;106909;1252;1002502;-64
2023/11/22 06:15:13;;;;;;;16.40;10.20;;;;;;;-128.00;-1.00;-1.00;106869;1251;1002669;-63
2023/11/22 06:17:41;;;;;;;10.80;8.10;;;;;;;-128.00;-1.00;-1.00;106932;1251;1002288;-64
2023/11/22 06:20:09;;;;;;;15.40;11.50;;;;;;;-128.00;-1.00;-1.00;106572;1251;1002169;-62
2023/11/22 06:22:40;;;;;;;11.70;9.80;;;;;;;-128.00;-1.00;-1.00;106903;1251;1002674;-63
2023/11/22 06:25:12;;;;;;;11.50;9.10;;;;;;;-128.00;-1.00;-1.00;106912;1251;1013262;-62
2023/11/22 06:27:40;;;;;;;10.90;8.70;;;;;;;-128.00;-1.00;-1.00;106885;1251;1011954;-63
2023/11/22 06:30:09;;;;;;;9.20;7.60;;;;;;;-128.00;-1.00;-1.00;106891;1251;1013118;-63
2023/11/22 06:32:36;;;;;;;20.50;10.30;;;;;;;-128.00;-1.00;-1.00;106894;1251;1009863;-66
2023/11/22 06:35:07;;;;;;;26.70;15.50;;;;;;;-128.00;-1.00;-1.00;106926;1251;1001978;-66
2023/11/22 06:37:34;;;;;;;16.20;10.70;;;;;;;-128.00;-1.00;-1.00;106895;1251;1012575;-65
2023/11/22 06:40:02;;;;;;;14.20;8.60;;;;;;;-128.00;-1.00;-1.00;106563;1251;1002235;-63
2023/11/22 06:42:29;;;;;;;15.10;9.40;;;;;;;-128.00;-1.00;-1.00;106752;1251;1002665;-66
2023/11/22 06:45:00;;;;;;;16.00;10.80;;;;;;;-128.00;-1.00;-1.00;106909;1251;1002098;-62
2023/11/22 06:47:27;;;;;;;13.90;8.30;;;;;;;-128.00;-1.00;-1.00;106847;1251;1011215;-65
2023/11/22 06:49:55;;;;;;;8.50;6.40;;;;;;;-128.00;-1.00;-1.00;106954;1250;1002001;-63
2023/11/22 06:52:23;;;;;;;19.30;11.30;;;;;;;-128.00;-1.00;-1.00;106837;1255;1002472;-62
2023/11/22 06:54:50;;;;;;;28.30;12.70;;;;;;;-128.00;-1.00;-1.00;106799;1250;1002477;-64
2023/11/22 06:57:18;;;;;;;20.50;13.90;;;;;;;-128.00;-1.00;-1.00;106971;1250;1002307;-63
2023/11/22 06:59:45;;;;;;;13.40;9.50;;;;;;;-128.00;-1.00;-1.00;106912;1250;1002088;-65
2023/11/22 07:02:15;;;;;;;11.50;8.40;;;;;;;-128.00;-1.00;-1.00;107024;1250;1002314;-62
2023/11/22 07:04:42;;;;;;;15.60;10.50;;;;;;;-128.00;-1.00;-1.00;106913;1249;1014119;-66
2023/11/22 07:07:10;;;;;;;18.60;10.30;;;;;;;-128.00;-1.00;-1.00;106977;1249;1001965;-63
2023/11/22 07:09:42;;;;;;;14.70;9.40;;;;;;;-128.00;-1.00;-1.00;106956;1250;1002742;-63
2023/11/22 07:12:10;;;;;;;12.80;9.40;;;;;;;-128.00;-1.00;-1.00;106900;1250;1011526;-63
2023/11/22 07:14:37;;;;;;;13.50;9.00;;;;;;;-128.00;-1.00;-1.00;106957;1250;1002400;-63
2023/11/22 07:17:06;;;;;;;13.30;9.00;;;;;;;-128.00;-1.00;-1.00;106970;1250;1002362;-63
2023/11/22 07:19:37;;;;;;;10.00;7.40;;;;;;;-128.00;-1.00;-1.00;106938;1250;1013613;-64
2023/11/22 07:22:15;;;;;;;18.60;10.80;;;;;;;-128.00;-1.00;-1.00;106932;1250;1010056;-66
2023/11/22 07:24:43;;;;;;;14.10;9.40;;;;;;;-128.00;-1.00;-1.00;106923;1250;1010973;-66
2023/11/22 07:27:12;;;;;;;30.20;13.00;;;;;;;-128.00;-1.00;-1.00;106938;1249;1002637;-64
2023/11/22 07:29:43;;;;;;;31.80;15.60;;;;;;;-128.00;-1.00;-1.00;106886;1252;1012751;-64
2023/11/22 07:32:10;;;;;;;33.00;16.40;;;;;;;-128.00;-1.00;-1.00;106729;1250;1013327;-66
2023/11/22 07:34:39;;;;;;;20.00;9.30;;;;;;;-128.00;-1.00;-1.00;106941;1249;1002918;-66
2023/11/22 07:37:07;;;;;;;24.70;12.80;;;;;;;-128.00;-1.00;-1.00;106855;1250;1011070;-67
2023/11/22 07:39:35;;;;;;;18.70;11.60;;;;;;;-128.00;-1.00;-1.00;106887;1254;1002336;-66
2023/11/22 07:42:03;;;;;;;19.80;11.80;;;;;;;-128.00;-1.00;-1.00;106682;1255;1001779;-66
2023/11/22 07:44:32;;;;;;;13.10;8.20;;;;;;;-128.00;-1.00;-1.00;106918;1250;1002485;-66
2023/11/22 07:47:00;;;;;;;16.30;10.00;;;;;;;-128.00;-1.00;-1.00;106900;1250;1009882;-66
2023/11/22 07:49:28;;;;;;;15.00;10.00;;;;;;;-128.00;-1.00;-1.00;106770;1248;1002542;-66
2023/11/22 07:51:56;;;;;;;17.80;10.80;;;;;;;-128.00;-1.00;-1.00;107102;1248;1013458;-65
2023/11/22 07:54:23;;;;;;;22.50;11.50;;;;;;;-128.00;-1.00;-1.00;107093;1248;1002640;-66
2023/11/22 07:56:54;;;;;;;30.90;14.00;;;;;;;-128.00;-1.00;-1.00;107103;1248;1002310;-65
2023/11/22 07:59:22;;;;;;;24.70;12.60;;;;;;;-128.00;-1.00;-1.00;107113;1248;1011218;-66
2023/11/22 08:01:50;;;;;;;21.60;12.20;;;;;;;-128.00;-1.00;-1.00;107060;1248;1002593;-66
2023/11/22 08:04:18;;;;;;;28.00;16.20;;;;;;;-128.00;-1.00;-1.00;107075;1251;1012749;-67
2023/11/22 08:06:45;;;;;;;23.90;12.90;;;;;;;-128.00;-1.00;-1.00;106579;1248;1002051;-67
2023/11/22 08:09:16;;;;;;;34.50;19.70;;;;;;;-128.00;-1.00;-1.00;107066;1251;1002871;-67
2023/11/22 08:11:44;;;;;;;24.20;13.70;;;;;;;-128.00;-1.00;-1.00;107046;1248;1010307;-67
2023/11/22 08:14:14;;;;;;;18.90;11.80;;;;;;;-128.00;-1.00;-1.00;106787;1248;1011665;-67
2023/11/22 08:16:42;;;;;;;12.20;8.70;;;;;;;-128.00;-1.00;-1.00;106599;1248;1012907;-66
2023/11/22 08:19:10;;;;;;;16.70;10.00;;;;;;;-128.00;-1.00;-1.00;107078;1248;1012958;-66
2023/11/22 08:21:39;;;;;;;15.70;9.70;;;;;;;-128.00;-1.00;-1.00;107082;1248;1012920;-64
2023/11/22 08:24:07;;;;;;;15.70;9.20;;;;;;;-128.00;-1.00;-1.00;107042;1248;1002465;-64
2023/11/22 08:26:35;;;;;;;12.60;9.20;;;;;;;-128.00;-1.00;-1.00;107135;1248;1002108;-65
2023/11/22 08:29:03;;;;;;;10.90;8.00;;;;;;;-128.00;-1.00;-1.00;107108;1248;1002385;-67
2023/11/22 08:31:30;;;;;;;15.60;9.50;;;;;;;-128.00;-1.00;-1.00;107136;1248;1002352;-64
2023/11/22 08:33:58;;;;;;;15.30;9.50;;;;;;;-128.00;-1.00;-1.00;107065;1248;1002629;-67
2023/11/22 08:36:28;;;;;;;23.70;12.80;;;;;;;-128.00;-1.00;-1.00;107125;1248;1002563;-67
2023/11/22 08:38:56;;;;;;;28.70;16.60;;;;;;;-128.00;-1.00;-1.00;106939;1248;1012119;-67
2023/11/22 08:41:24;;;;;;;41.50;19.20;;;;;;;-128.00;-1.00;-1.00;107129;1248;1013084;-66
2023/11/22 08:43:51;;;;;;;46.30;20.60;;;;;;;-128.00;-1.00;-1.00;107105;1248;1002319;-66
2023/11/22 08:46:19;;;;;;;26.80;14.00;;;;;;;-128.00;-1.00;-1.00;107063;1248;1001915;-65
2023/11/22 08:48:46;;;;;;;22.30;13.30;;;;;;;-128.00;-1.00;-1.00;107014;1250;1002962;-66
2023/11/22 08:51:15;;;;;;;16.20;10.20;;;;;;;-128.00;-1.00;-1.00;106607;1252;1002163;-64
2023/11/22 08:53:44;;;;;;;28.80;16.50;;;;;;;-128.00;-1.00;-1.00;106560;1251;1014369;-66
2023/11/22 08:56:12;;;;;;;25.00;13.20;;;;;;;-128.00;-1.00;-1.00;106472;1253;1014160;-66
2023/11/22 08:58:39;;;;;;;30.70;16.50;;;;;;;-128.00;-1.00;-1.00;106595;1252;1005323;-64
2023/11/22 09:01:07;;;;;;;29.80;14.40;;;;;;;-128.00;-1.00;-1.00;106938;1252;1002120;-63
2023/11/22 09:03:35;;;;;;;20.30;10.90;;;;;;;-128.00;-1.00;-1.00;106889;1253;1001792;-61
2023/11/22 09:06:03;;;;;;;33.50;16.30;;;;;;;-128.00;-1.00;-1.00;106900;1252;1002400;-66
2023/11/22 09:08:30;;;;;;;33.80;16.00;;;;;;;-128.00;-1.00;-1.00;106580;1252;1002002;-65
2023/11/22 09:10:58;;;;;;;27.90;14.50;;;;;;;-128.00;-1.00;-1.00;106956;1252;1002257;-66
2023/11/22 09:13:26;;;;;;;22.40;12.30;;;;;;;-128.00;-1.00;-1.00;106901;1252;1002815;-66
2023/11/22 09:15:53;;;;;;;20.70;10.90;;;;;;;-128.00;-1.00;-1.00;106949;1252;1002323;-65
2023/11/22 09:18:21;;;;;;;23.30;13.10;;;;;;;-128.00;-1.00;-1.00;106898;1252;1001944;-66
2023/11/22 09:20:49;;;;;;;;;;;;;;;-128.00;-1.00;-1.00;106615;1251;1011855;-66
2023/11/22 09:23:17;;;;;;;21.10;15.60;;;;;;;-128.00;-1.00;-1.00;106872;1252;1002761;-66
2023/11/22 09:25:45;;;;;;;17.90;10.50;;;;;;;-128.00;-1.00;-1.00;106664;1252;1002572;-65
2023/11/22 09:28:15;;;;;;;16.50;10.70;;;;;;;-128.00;-1.00;-1.00;106888;1252;1010963;-64
2023/11/22 09:30:45;;;;;;;15.00;11.50;;;;;;;-128.00;-1.00;-1.00;106583;1253;1012858;-67
2023/11/22 09:33:18;;;;;;;14.10;8.50;;;;;;;-128.00;-1.00;-1.00;106883;1252;1012777;-63
2023/11/22 09:35:47;;;;;;;12.00;8.20;;;;;;;-128.00;-1.00;-1.00;106885;1252;1013437;-65
2023/11/22 09:38:15;;;;;;;11.10;8.30;;;;;;;-128.00;-1.00;-1.00;106505;1252;1009716;-64
2023/11/22 09:40:45;;;;;;;13.50;10.50;;;;;;;-128.00;-1.00;-1.00;106573;1252;1010874;-63
2023/11/22 09:43:17;;;;;;;15.10;8.60;;;;;;;-128.00;-1.00;-1.00;106895;1252;1012911;-65
2023/11/22 09:45:50;;;;;;;9.80;7.60;;;;;;;-128.00;-1.00;-1.00;106863;1252;1012287;-65
2023/11/22 09:48:24;;;;;;;8.70;7.10;;;;;;;-128.00;-1.00;-1.00;106715;1251;1015546;-66
2023/11/22 09:50:59;;;;;;;8.20;6.50;;;;;;;-128.00;-1.00;-1.00;106868;1252;1009629;-67
2023/11/22 09:53:34;;;;;;;9.50;7.50;;;;;;;-128.00;-1.00;-1.00;106935;1252;1011932;-65
2023/11/22 09:56:03;;;;;;;9.00;6.60;;;;;;;-128.00;-1.00;-1.00;106904;1252;1012538;-66
2023/11/22 09:58:33;;;;;;;13.20;10.10;;;;;;;-128.00;-1.00;-1.00;106741;1251;1012555;-65
2023/11/22 10:01:01;;;;;;;16.50;9.60;;;;;;;-128.00;-1.00;-1.00;106866;1253;1012404;-63
2023/11/22 10:03:29;;;;;;;20.90;12.20;;;;;;;-128.00;-1.00;-1.00;106894;1252;1002756;-65
2023/11/22 10:05:58;;;;;;;11.70;8.60;;;;;;;-128.00;-1.00;-1.00;106920;1252;1002547;-64
2023/11/22 10:08:27;;;;;;;18.90;11.00;;;;;;;-128.00;-1.00;-1.00;106775;1252;1012853;-66
2023/11/22 10:10:54;;;;;;;;;;;;;;;-128.00;-1.00;-1.00;106904;1252;1013212;-66
2023/11/22 10:13:22;;;;;;;17.80;10.10;;;;;;;-128.00;-1.00;-1.00;106747;1253;1002276;-66
2023/11/22 10:15:50;;;;;;;14.70;9.50;;;;;;;-128.00;-1.00;-1.00;106697;1253;1010260;-66
2023/11/22 10:18:19;;;;;;;21.10;12.30;;;;;;;-128.00;-1.00;-1.00;106925;1252;1011168;-67
2023/11/22 10:20:49;;;;;;;14.20;10.10;;;;;;;-128.00;-1.00;-1.00;106873;1252;1013144;-67
2023/11/22 10:23:17;;;;;;;13.60;9.40;;;;;;;-128.00;-1.00;-1.00;106629;1251;1012259;-67
2023/11/22 10:25:49;;;;;;;13.60;8.70;;;;;;;-128.00;-1.00;-1.00;106863;1252;1012872;-66
2023/11/22 10:28:20;;;;;;;16.00;10.80;;;;;;;-128.00;-1.00;-1.00;106860;1252;1010713;-67
2023/11/22 10:30:49;;;;;;;11.60;9.00;;;;;;;-128.00;-1.00;-1.00;106890;1252;1010932;-67
2023/11/22 10:33:19;;;;;;;14.70;9.70;;;;;;;-128.00;-1.00;-1.00;106538;1252;1013107;-67
2023/11/22 10:35:51;;;;;;;12.80;9.50;;;;;;;-128.00;-1.00;-1.00;106871;1252;1013216;-67
2023/11/22 10:38:18;;;;;;;15.10;7.80;;;;;;;-128.00;-1.00;-1.00;106907;1252;1012464;-67
2023/11/22 10:40:47;;;;;;;12.70;9.50;;;;;;;-128.00;-1.00;-1.00;106863;1252;1002866;-67
2023/11/22 10:43:15;;;;;;;10.80;7.60;;;;;;;-128.00;-1.00;-1.00;106871;1252;1010650;-68
2023/11/22 10:45:51;;;;;;;15.70;11.30;;;;;;;-128.00;-1.00;-1.00;106859;1252;1002782;-67
2023/11/22 10:48:20;;;;;;;18.10;12.80;;;;;;;-128.00;-1.00;-1.00;106934;1252;1013299;-66
2023/11/22 10:50:48;;;;;;;14.90;10.40;;;;;;;-128.00;-1.00;-1.00;106944;1252;1012678;-66
2023/11/22 10:53:18;;;;;;;20.50;12.60;;;;;;;-128.00;-1.00;-1.00;106880;1252;1004358;-66
2023/11/22 10:55:49;;;;;;;24.50;15.70;;;;;;;-128.00;-1.00;-1.00;106740;1255;1010444;-67
2023/11/22 10:58:17;;;;;;;17.00;12.20;;;;;;;-128.00;-1.00;-1.00;106934;1252;1012939;-68
2023/11/22 11:00:44;;;;;;;19.30;13.40;;;;;;;-128.00;-1.00;-1.00;106910;1252;1002327;-68
2023/11/22 11:03:14;;;;;;;16.90;11.40;;;;;;;-128.00;-1.00;-1.00;106891;1253;1002256;-67
2023/11/22 11:05:46;;;;;;;25.80;17.20;;;;;;;-128.00;-1.00;-1.00;106884;1252;1010491;-68
2023/11/22 11:08:16;;;;;;;23.00;14.50;;;;;;;-128.00;-1.00;-1.00;106911;1253;1013108;-62
2023/11/22 11:10:44;;;;;;;28.50;15.90;;;;;;;-128.00;-1.00;-1.00;106894;1251;1013518;-68